sensor_id;sensor_type;location;lat;lon;timestamp;temperature;humidity
55642;DHT22;41509;53.108;6.100;2023-03-14T00:00:15;9.80;99.90
55642;DHT22;41509;53.108;6.100;2023-03-14T00:02:41;9.80;99.90
55642;DHT22;41509;53.108;6.100;2023-03-14T00:05:08;9.80;99.90
55642;DHT22;41509;53.108;6.100;2023-03-14T00:07:38;9.80;99.90
55642;DHT22;41509;53.108;6.100;2023-03-14T00:10:06;9.80;99.90
55642;DHT22;41509;53.108;6.100;2023-03-14T00:12:32;9.80;99.90
55642;DHT22;41509;53.108;6.100;2023-03-14T00:15:00;9.80;99.90
55642;DHT22;41509;53.108;6.100;2023-03-14T00:17:29;9.80;99.90
55642;DHT22;41509;53.108;6.100;2023-03-14T00:19:58;9.80;99.90
55642;DHT22;41509;53.108;6.100;2023-03-14T00:22:30;9.80;99.90
55642;DHT22;41509;53.108;6.100;2023-03-14T00:24:56;9.80;99.90
55642;DHT22;41509;53.108;6.100;2023-03-14T00:27:21;9.80;99.90
55642;DHT22;41509;53.108;6.100;2023-03-14T00:29:47;9.80;99.90
55642;DHT22;41509;53.108;6.100;2023-03-14T00:32:12;9.90;99.90
55642;DHT22;41509;53.108;6.100;2023-03-14T00:34:38;9.80;99.90
55642;DHT22;41509;53.108;6.100;2023-03-14T00:37:05;9.80;99.90
55642;DHT22;41509;53.108;6.100;2023-03-14T00:39:31;9.80;99.90
55642;DHT22;41509;53.108;6.100;2023-03-14T00:41:56;9.80;99.90
55642;DHT22;41509;53.108;6.100;2023-03-14T00:44:22;9.70;99.90
55642;DHT22;41509;53.108;6.100;2023-03-14T00:46:47;9.80;99.90
55642;DHT22;41509;53.108;6.100;2023-03-14T00:49:13;9.70;99.90
55642;DHT22;41509;53.108;6.100;2023-03-14T00:51:39;9.80;99.90
55642;DHT22;41509;53.108;6.100;2023-03-14T00:54:04;9.80;99.90
55642;DHT22;41509;53.108;6.100;2023-03-14T00:56:30;9.80;99.90
55642;DHT22;41509;53.108;6.100;2023-03-14T00:58:56;9.80;99.90
55642;DHT22;41509;53.108;6.100;2023-03-14T01:01:22;9.80;99.90
55642;DHT22;41509;53.108;6.100;2023-03-14T01:03:51;9.80;99.90
55642;DHT22;41509;53.108;6.100;2023-03-14T01:06:20;9.90;99.90
55642;DHT22;41509;53.108;6.100;2023-03-14T01:08:46;10.00;99.90
55642;DHT22;41509;53.108;6.100;2023-03-14T01:11:15;10.00;99.90
55642;DHT22;41509;53.108;6.100;2023-03-14T01:13:42;10.10;99.90
55642;DHT22;41509;53.108;6.100;2023-03-14T01:16:10;10.10;99.90
55642;DHT22;41509;53.108;6.100;2023-03-14T01:18:36;10.10;99.90
55642;DHT22;41509;53.108;6.100;2023-03-14T01:21:23;10.20;99.90
55642;DHT22;41509;53.108;6.100;2023-03-14T01:23:50;10.20;99.90
55642;DHT22;41509;53.108;6.100;2023-03-14T01:26:19;10.20;99.90
55642;DHT22;41509;53.108;6.100;2023-03-14T01:28:46;10.30;99.90
55642;DHT22;41509;53.108;6.100;2023-03-14T01:31:13;10.20;99.90
55642;DHT22;41509;53.108;6.100;2023-03-14T01:33:39;10.20;99.90
55642;DHT22;41509;53.108;6.100;2023-03-14T01:36:05;10.20;99.90
55642;DHT22;41509;53.108;6.100;2023-03-14T01:38:31;10.20;99.90
55642;DHT22;41509;53.108;6.100;2023-03-14T01:41:01;10.20;99.90
55642;DHT22;41509;53.108;6.100;2023-03-14T01:43:27;10.20;99.90
55642;DHT22;41509;53.108;6.100;2023-03-14T01:53:58;10.10;99.90
55642;DHT22;41509;53.108;6.100;2023-03-14T01:56:26;10.00;99.90
55642;DHT22;41509;53.108;6.100;2023-03-14T01:58:52;10.00;99.90
55642;DHT22;41509;53.108;6.100;2023-03-14T02:01:20;9.90;99.90
55642;DHT22;41509;53.108;6.100;2023-03-14T02:03:52;9.90;99.90
55642;DHT22;41509;53.108;6.100;2023-03-14T02:06:22;9.90;99.90
55642;DHT22;41509;53.108;6.100;2023-03-14T02:08:49;9.80;99.90
55642;DHT22;41509;53.108;6.100;2023-03-14T02:11:16;9.90;99.90
55642;DHT22;41509;53.108;6.100;2023-03-14T02:13:42;9.90;99.90
55642;DHT22;41509;53.108;6.100;2023-03-14T02:16:08;9.80;99.90
55642;DHT22;41509;53.108;6.100;2023-03-14T02:18:34;9.80;99.90
55642;DHT22;41509;53.108;6.100;2023-03-14T02:21:14;9.80;99.90
55642;DHT22;41509;53.108;6.100;2023-03-14T02:23:57;9.80;99.90
55642;DHT22;41509;53.108;6.100;2023-03-14T02:29:25;9.80;99.90
55642;DHT22;41509;53.108;6.100;2023-03-14T02:31:51;9.80;99.90
55642;DHT22;41509;53.108;6.100;2023-03-14T02:34:16;9.70;99.90
55642;DHT22;41509;53.108;6.100;2023-03-14T02:36:42;9.70;99.90
55642;DHT22;41509;53.108;6.100;2023-03-14T02:39:14;9.70;99.90
55642;DHT22;41509;53.108;6.100;2023-03-14T02:41:41;9.70;99.90
55642;DHT22;41509;53.108;6.100;2023-03-14T02:44:07;9.60;99.90
55642;DHT22;41509;53.108;6.100;2023-03-14T02:46:33;9.60;99.90
55642;DHT22;41509;53.108;6.100;2023-03-14T02:49:04;9.50;99.90
55642;DHT22;41509;53.108;6.100;2023-03-14T02:51:33;9.50;99.90
55642;DHT22;41509;53.108;6.100;2023-03-14T02:53:58;9.40;99.90
55642;DHT22;41509;53.108;6.100;2023-03-14T02:56:24;9.40;99.90
55642;DHT22;41509;53.108;6.100;2023-03-14T02:58:50;9.30;99.90
55642;DHT22;41509;53.108;6.100;2023-03-14T03:01:15;9.30;99.90
55642;DHT22;41509;53.108;6.100;2023-03-14T03:03:41;9.20;99.90
55642;DHT22;41509;53.108;6.100;2023-03-14T03:06:07;9.20;99.90
55642;DHT22;41509;53.108;6.100;2023-03-14T03:08:33;9.10;99.90
55642;DHT22;41509;53.108;6.100;2023-03-14T03:10:58;9.20;99.90
55642;DHT22;41509;53.108;6.100;2023-03-14T03:13:25;9.20;99.90
55642;DHT22;41509;53.108;6.100;2023-03-14T03:15:53;9.20;99.90
55642;DHT22;41509;53.108;6.100;2023-03-14T03:18:19;9.10;99.90
55642;DHT22;41509;53.108;6.100;2023-03-14T03:20:47;9.10;99.90
55642;DHT22;41509;53.108;6.100;2023-03-14T03:23:13;9.10;99.90
55642;DHT22;41509;53.108;6.100;2023-03-14T03:25:41;9.10;99.90
55642;DHT22;41509;53.108;6.100;2023-03-14T03:28:09;9.00;99.90
55642;DHT22;41509;53.108;6.100;2023-03-14T03:30:41;9.10;99.90
55642;DHT22;41509;53.108;6.100;2023-03-14T03:33:07;9.10;99.90
55642;DHT22;41509;53.108;6.100;2023-03-14T03:35:33;9.10;99.90
55642;DHT22;41509;53.108;6.100;2023-03-14T03:37:59;9.00;99.90
55642;DHT22;41509;53.108;6.100;2023-03-14T03:40:24;9.10;99.90
55642;DHT22;41509;53.108;6.100;2023-03-14T03:42:51;9.00;99.90
55642;DHT22;41509;53.108;6.100;2023-03-14T03:45:16;9.00;99.90
55642;DHT22;41509;53.108;6.100;2023-03-14T03:47:42;9.00;99.90
55642;DHT22;41509;53.108;6.100;2023-03-14T03:50:10;9.00;99.90
55642;DHT22;41509;53.108;6.100;2023-03-14T03:52:36;9.00;99.90
55642;DHT22;41509;53.108;6.100;2023-03-14T03:57:37;9.10;99.90
55642;DHT22;41509;53.108;6.100;2023-03-14T04:00:04;9.10;99.90
55642;DHT22;41509;53.108;6.100;2023-03-14T04:02:31;9.10;99.90
55642;DHT22;41509;53.108;6.100;2023-03-14T04:04:56;9.10;99.90
55642;DHT22;41509;53.108;6.100;2023-03-14T04:07:22;9.10;99.90
55642;DHT22;41509;53.108;6.100;2023-03-14T04:09:50;9.10;99.90
55642;DHT22;41509;53.108;6.100;2023-03-14T04:12:16;9.10;99.90
55642;DHT22;41509;53.108;6.100;2023-03-14T04:14:45;9.10;99.90
55642;DHT22;41509;53.108;6.100;2023-03-14T04:17:16;9.10;99.90
55642;DHT22;41509;53.108;6.100;2023-03-14T04:19:41;9.10;99.90
55642;DHT22;41509;53.108;6.100;2023-03-14T04:22:08;9.10;99.90
55642;DHT22;41509;53.108;6.100;2023-03-14T04:24:34;9.00;99.90
55642;DHT22;41509;53.108;6.100;2023-03-14T04:27:00;9.00;99.90
55642;DHT22;41509;53.108;6.100;2023-03-14T04:29:25;9.00;99.90
55642;DHT22;41509;53.108;6.100;2023-03-14T04:31:51;9.00;99.90
55642;DHT22;41509;53.108;6.100;2023-03-14T04:34:16;8.90;99.90
55642;DHT22;41509;53.108;6.100;2023-03-14T04:36:42;8.90;99.90
55642;DHT22;41509;53.108;6.100;2023-03-14T04:39:09;9.00;99.90
55642;DHT22;41509;53.108;6.100;2023-03-14T04:41:35;8.90;99.90
55642;DHT22;41509;53.108;6.100;2023-03-14T04:44:03;8.90;99.90
55642;DHT22;41509;53.108;6.100;2023-03-14T04:46:29;9.00;99.90
55642;DHT22;41509;53.108;6.100;2023-03-14T04:48:55;8.90;99.90
55642;DHT22;41509;53.108;6.100;2023-03-14T04:51:22;9.00;99.90
55642;DHT22;41509;53.108;6.100;2023-03-14T04:53:48;8.90;99.90
55642;DHT22;41509;53.108;6.100;2023-03-14T04:56:14;8.90;99.90
55642;DHT22;41509;53.108;6.100;2023-03-14T04:58:40;8.80;99.90
55642;DHT22;41509;53.108;6.100;2023-03-14T05:01:06;8.90;99.90
55642;DHT22;41509;53.108;6.100;2023-03-14T05:03:32;8.80;99.90
55642;DHT22;41509;53.108;6.100;2023-03-14T05:05:57;8.80;99.90
55642;DHT22;41509;53.108;6.100;2023-03-14T05:08:24;8.80;99.90
55642;DHT22;41509;53.108;6.100;2023-03-14T05:10:57;8.80;99.90
55642;DHT22;41509;53.108;6.100;2023-03-14T05:13:23;8.80;99.90
55642;DHT22;41509;53.108;6.100;2023-03-14T05:15:51;8.80;99.90
55642;DHT22;41509;53.108;6.100;2023-03-14T05:18:18;8.80;99.90
55642;DHT22;41509;53.108;6.100;2023-03-14T05:20:43;8.80;99.90
55642;DHT22;41509;53.108;6.100;2023-03-14T05:23:09;8.80;99.90
55642;DHT22;41509;53.108;6.100;2023-03-14T05:25:35;8.80;99.90
55642;DHT22;41509;53.108;6.100;2023-03-14T05:28:01;8.70;99.90
55642;DHT22;41509;53.108;6.100;2023-03-14T05:30:26;8.80;99.90
55642;DHT22;41509;53.108;6.100;2023-03-14T05:32:53;8.70;99.90
55642;DHT22;41509;53.108;6.100;2023-03-14T05:35:19;8.80;99.90
55642;DHT22;41509;53.108;6.100;2023-03-14T05:37:45;8.80;99.90
55642;DHT22;41509;53.108;6.100;2023-03-14T05:40:13;8.80;99.90
55642;DHT22;41509;53.108;6.100;2023-03-14T05:42:39;8.80;99.90
55642;DHT22;41509;53.108;6.100;2023-03-14T05:45:05;8.80;99.90
55642;DHT22;41509;53.108;6.100;2023-03-14T05:47:30;8.80;99.90
55642;DHT22;41509;53.108;6.100;2023-03-14T05:49:56;8.80;99.90
55642;DHT22;41509;53.108;6.100;2023-03-14T05:52:22;8.90;99.90
55642;DHT22;41509;53.108;6.100;2023-03-14T05:54:47;8.80;99.90
55642;DHT22;41509;53.108;6.100;2023-03-14T05:57:13;8.70;99.90
55642;DHT22;41509;53.108;6.100;2023-03-14T05:59:39;8.80;99.90
55642;DHT22;41509;53.108;6.100;2023-03-14T06:02:04;8.80;99.90
55642;DHT22;41509;53.108;6.100;2023-03-14T06:04:30;8.90;99.90
55642;DHT22;41509;53.108;6.100;2023-03-14T06:06:56;8.80;99.90
55642;DHT22;41509;53.108;6.100;2023-03-14T06:09:21;8.80;99.90
55642;DHT22;41509;53.108;6.100;2023-03-14T06:11:49;8.80;99.90
55642;DHT22;41509;53.108;6.100;2023-03-14T06:14:17;8.70;99.90
55642;DHT22;41509;53.108;6.100;2023-03-14T06:16:46;8.80;99.90
55642;DHT22;41509;53.108;6.100;2023-03-14T06:19:13;8.80;99.90
55642;DHT22;41509;53.108;6.100;2023-03-14T06:21:39;8.70;99.90
55642;DHT22;41509;53.108;6.100;2023-03-14T06:24:07;8.60;99.90
55642;DHT22;41509;53.108;6.100;2023-03-14T06:26:32;8.40;99.90
55642;DHT22;41509;53.108;6.100;2023-03-14T06:28:58;8.20;99.90
55642;DHT22;41509;53.108;6.100;2023-03-14T06:31:29;7.80;99.90
55642;DHT22;41509;53.108;6.100;2023-03-14T06:33:55;7.60;99.90
55642;DHT22;41509;53.108;6.100;2023-03-14T06:36:21;7.30;99.90
55642;DHT22;41509;53.108;6.100;2023-03-14T06:38:47;7.20;99.90
55642;DHT22;41509;53.108;6.100;2023-03-14T06:41:12;7.00;99.90
55642;DHT22;41509;53.108;6.100;2023-03-14T06:43:38;6.90;99.90
55642;DHT22;41509;53.108;6.100;2023-03-14T06:46:04;6.80;99.90
55642;DHT22;41509;53.108;6.100;2023-03-14T06:48:30;6.70;99.90
55642;DHT22;41509;53.108;6.100;2023-03-14T06:50:55;6.50;99.90
55642;DHT22;41509;53.108;6.100;2023-03-14T06:53:21;6.30;99.90
55642;DHT22;41509;53.108;6.100;2023-03-14T06:55:50;6.20;99.90
55642;DHT22;41509;53.108;6.100;2023-03-14T06:58:16;6.10;99.90
55642;DHT22;41509;53.108;6.100;2023-03-14T07:00:47;6.00;99.90
55642;DHT22;41509;53.108;6.100;2023-03-14T07:03:14;5.90;99.90
55642;DHT22;41509;53.108;6.100;2023-03-14T07:05:40;5.80;99.90
55642;DHT22;41509;53.108;6.100;2023-03-14T07:08:08;5.70;99.90
55642;DHT22;41509;53.108;6.100;2023-03-14T07:10:34;5.60;99.90
55642;DHT22;41509;53.108;6.100;2023-03-14T07:13:00;5.50;99.90
55642;DHT22;41509;53.108;6.100;2023-03-14T07:15:29;5.40;99.90
55642;DHT22;41509;53.108;6.100;2023-03-14T07:17:54;5.40;99.90
55642;DHT22;41509;53.108;6.100;2023-03-14T07:20:20;5.30;99.90
55642;DHT22;41509;53.108;6.100;2023-03-14T07:22:50;5.30;99.90
55642;DHT22;41509;53.108;6.100;2023-03-14T07:25:16;5.20;99.90
55642;DHT22;41509;53.108;6.100;2023-03-14T07:27:44;5.20;99.90
55642;DHT22;41509;53.108;6.100;2023-03-14T07:30:11;5.20;99.90
55642;DHT22;41509;53.108;6.100;2023-03-14T07:32:36;5.20;99.90
55642;DHT22;41509;53.108;6.100;2023-03-14T07:35:02;5.10;99.90
55642;DHT22;41509;53.108;6.100;2023-03-14T07:37:28;5.10;99.90
55642;DHT22;41509;53.108;6.100;2023-03-14T07:39:56;5.20;99.90
55642;DHT22;41509;53.108;6.100;2023-03-14T07:42:22;5.20;99.90
55642;DHT22;41509;53.108;6.100;2023-03-14T07:44:48;5.20;99.90
55642;DHT22;41509;53.108;6.100;2023-03-14T07:47:13;5.20;99.90
55642;DHT22;41509;53.108;6.100;2023-03-14T07:49:39;5.20;99.90
55642;DHT22;41509;53.108;6.100;2023-03-14T07:52:04;5.20;99.90
55642;DHT22;41509;53.108;6.100;2023-03-14T07:54:30;5.20;99.90
55642;DHT22;41509;53.108;6.100;2023-03-14T07:56:56;5.20;99.90
55642;DHT22;41509;53.108;6.100;2023-03-14T07:59:26;5.30;99.90
55642;DHT22;41509;53.108;6.100;2023-03-14T08:01:52;5.30;99.90
55642;DHT22;41509;53.108;6.100;2023-03-14T08:04:18;5.40;99.90
55642;DHT22;41509;53.108;6.100;2023-03-14T08:06:43;5.40;99.90
55642;DHT22;41509;53.108;6.100;2023-03-14T08:09:09;5.50;99.90
55642;DHT22;41509;53.108;6.100;2023-03-14T08:11:35;5.50;99.90
55642;DHT22;41509;53.108;6.100;2023-03-14T08:14:01;5.50;99.90
55642;DHT22;41509;53.108;6.100;2023-03-14T08:16:26;5.60;99.90
55642;DHT22;41509;53.108;6.100;2023-03-14T08:18:52;5.60;99.90
55642;DHT22;41509;53.108;6.100;2023-03-14T08:21:18;5.60;99.90
55642;DHT22;41509;53.108;6.100;2023-03-14T08:23:44;5.70;99.90
55642;DHT22;41509;53.108;6.100;2023-03-14T08:26:10;5.70;99.90
55642;DHT22;41509;53.108;6.100;2023-03-14T08:28:35;5.80;99.90
55642;DHT22;41509;53.108;6.100;2023-03-14T08:31:01;5.80;99.90
55642;DHT22;41509;53.108;6.100;2023-03-14T08:33:28;5.80;99.90
55642;DHT22;41509;53.108;6.100;2023-03-14T08:35:55;5.80;99.90
55642;DHT22;41509;53.108;6.100;2023-03-14T08:38:21;5.90;99.90
55642;DHT22;41509;53.108;6.100;2023-03-14T08:40:46;5.90;99.90
55642;DHT22;41509;53.108;6.100;2023-03-14T08:43:12;5.90;99.90
55642;DHT22;41509;53.108;6.100;2023-03-14T08:45:38;5.90;99.90
55642;DHT22;41509;53.108;6.100;2023-03-14T08:48:04;6.00;99.90
55642;DHT22;41509;53.108;6.100;2023-03-14T08:50:29;6.00;99.90
55642;DHT22;41509;53.108;6.100;2023-03-14T08:52:55;6.10;99.90
55642;DHT22;41509;53.108;6.100;2023-03-14T08:55:23;6.20;99.90
55642;DHT22;41509;53.108;6.100;2023-03-14T08:57:52;6.30;99.90
55642;DHT22;41509;53.108;6.100;2023-03-14T09:00:18;6.40;99.90
55642;DHT22;41509;53.108;6.100;2023-03-14T09:02:44;6.40;99.90
55642;DHT22;41509;53.108;6.100;2023-03-14T09:05:11;6.50;99.90
55642;DHT22;41509;53.108;6.100;2023-03-14T09:07:37;6.60;99.90
55642;DHT22;41509;53.108;6.100;2023-03-14T09:10:03;6.60;99.90
55642;DHT22;41509;53.108;6.100;2023-03-14T09:12:32;6.60;99.90
55642;DHT22;41509;53.108;6.100;2023-03-14T09:14:58;6.50;99.90
55642;DHT22;41509;53.108;6.100;2023-03-14T09:17:24;6.50;99.90
55642;DHT22;41509;53.108;6.100;2023-03-14T09:19:49;6.40;99.90
55642;DHT22;41509;53.108;6.100;2023-03-14T09:22:18;6.40;99.90
55642;DHT22;41509;53.108;6.100;2023-03-14T09:24:47;6.40;99.90
55642;DHT22;41509;53.108;6.100;2023-03-14T09:27:12;6.40;99.90
55642;DHT22;41509;53.108;6.100;2023-03-14T09:29:38;6.40;99.90
55642;DHT22;41509;53.108;6.100;2023-03-14T09:32:04;6.40;99.90
55642;DHT22;41509;53.108;6.100;2023-03-14T09:34:29;6.40;99.90
55642;DHT22;41509;53.108;6.100;2023-03-14T09:36:55;6.50;99.90
55642;DHT22;41509;53.108;6.100;2023-03-14T09:39:21;6.50;99.90
55642;DHT22;41509;53.108;6.100;2023-03-14T09:41:49;6.50;99.90
55642;DHT22;41509;53.108;6.100;2023-03-14T09:44:28;6.50;99.90
55642;DHT22;41509;53.108;6.100;2023-03-14T09:46:57;6.50;99.90
55642;DHT22;41509;53.108;6.100;2023-03-14T09:49:25;6.40;99.90
55642;DHT22;41509;53.108;6.100;2023-03-14T09:51:54;6.40;99.90
55642;DHT22;41509;53.108;6.100;2023-03-14T09:57:26;6.50;99.90
55642;DHT22;41509;53.108;6.100;2023-03-14T09:59:54;6.50;99.90
55642;DHT22;41509;53.108;6.100;2023-03-14T10:02:24;6.50;99.90
55642;DHT22;41509;53.108;6.100;2023-03-14T10:04:52;6.60;99.90
55642;DHT22;41509;53.108;6.100;2023-03-14T10:07:27;6.60;99.90
55642;DHT22;41509;53.108;6.100;2023-03-14T10:09:54;6.70;99.90
55642;DHT22;41509;53.108;6.100;2023-03-14T10:12:20;6.80;99.90
55642;DHT22;41509;53.108;6.100;2023-03-14T10:14:55;6.90;99.90
55642;DHT22;41509;53.108;6.100;2023-03-14T10:17:20;6.90;99.90
55642;DHT22;41509;53.108;6.100;2023-03-14T10:19:57;6.90;99.90
55642;DHT22;41509;53.108;6.100;2023-03-14T10:22:31;6.90;99.90
55642;DHT22;41509;53.108;6.100;2023-03-14T10:25:02;6.90;99.90
55642;DHT22;41509;53.108;6.100;2023-03-14T10:27:34;6.80;99.90
55642;DHT22;41509;53.108;6.100;2023-03-14T10:30:06;6.90;99.90
55642;DHT22;41509;53.108;6.100;2023-03-14T10:32:37;7.00;99.90
55642;DHT22;41509;53.108;6.100;2023-03-14T10:35:23;7.10;99.90
55642;DHT22;41509;53.108;6.100;2023-03-14T10:40:19;7.20;99.90
55642;DHT22;41509;53.108;6.100;2023-03-14T10:42:46;7.10;99.90
55642;DHT22;41509;53.108;6.100;2023-03-14T10:45:33;7.00;99.90
55642;DHT22;41509;53.108;6.100;2023-03-14T10:48:51;7.10;99.90
55642;DHT22;41509;53.108;6.100;2023-03-14T10:53:26;7.20;99.90
55642;DHT22;41509;53.108;6.100;2023-03-14T10:55:52;7.40;99.90
55642;DHT22;41509;53.108;6.100;2023-03-14T10:58:28;7.60;99.90
55642;DHT22;41509;53.108;6.100;2023-03-14T11:01:06;7.80;99.90
55642;DHT22;41509;53.108;6.100;2023-03-14T11:03:36;7.90;99.90
55642;DHT22;41509;53.108;6.100;2023-03-14T11:06:14;7.90;99.90
55642;DHT22;41509;53.108;6.100;2023-03-14T11:08:57;7.60;99.90
55642;DHT22;41509;53.108;6.100;2023-03-14T11:11:29;7.50;99.90
55642;DHT22;41509;53.108;6.100;2023-03-14T11:22:38;7.20;99.90
55642;DHT22;41509;53.108;6.100;2023-03-14T11:30:50;7.20;99.90
55642;DHT22;41509;53.108;6.100;2023-03-14T11:36:03;7.50;99.90
55642;DHT22;41509;53.108;6.100;2023-03-14T11:38:53;7.60;99.70
55642;DHT22;41509;53.108;6.100;2023-03-14T11:43:58;7.80;98.50
55642;DHT22;41509;53.108;6.100;2023-03-14T11:46:36;7.90;98.70
55642;DHT22;41509;53.108;6.100;2023-03-14T11:51:46;8.20;97.90
55642;DHT22;41509;53.108;6.100;2023-03-14T11:54:18;8.20;95.90
55642;DHT22;41509;53.108;6.100;2023-03-14T11:56:58;8.30;96.20
55642;DHT22;41509;53.108;6.100;2023-03-14T11:59:40;8.20;96.40
55642;DHT22;41509;53.108;6.100;2023-03-14T12:10:55;8.00;97.40
55642;DHT22;41509;53.108;6.100;2023-03-14T12:13:28;7.80;98.10
55642;DHT22;41509;53.108;6.100;2023-03-14T12:15:59;7.60;98.90
55642;DHT22;41509;53.108;6.100;2023-03-14T12:18:31;7.50;99.80
55642;DHT22;41509;53.108;6.100;2023-03-14T12:21:00;7.70;99.60
55642;DHT22;41509;53.108;6.100;2023-03-14T12:23:27;7.80;98.90
55642;DHT22;41509;53.108;6.100;2023-03-14T12:28:38;7.70;98.30
55642;DHT22;41509;53.108;6.100;2023-03-14T12:39:20;8.00;95.60
55642;DHT22;41509;53.108;6.100;2023-03-14T12:42:20;8.00;94.80
55642;DHT22;41509;53.108;6.100;2023-03-14T12:44:49;8.00;95.10
55642;DHT22;41509;53.108;6.100;2023-03-14T12:49:52;8.00;94.90
55642;DHT22;41509;53.108;6.100;2023-03-14T12:52:39;8.10;93.30
55642;DHT22;41509;53.108;6.100;2023-03-14T12:55:36;8.10;94.10
55642;DHT22;41509;53.108;6.100;2023-03-14T12:58:34;8.20;90.10
55642;DHT22;41509;53.108;6.100;2023-03-14T13:01:04;8.20;85.30
55642;DHT22;41509;53.108;6.100;2023-03-14T13:03:42;8.20;90.70
55642;DHT22;41509;53.108;6.100;2023-03-14T13:06:10;8.20;87.90
55642;DHT22;41509;53.108;6.100;2023-03-14T13:08:44;8.20;88.10
55642;DHT22;41509;53.108;6.100;2023-03-14T13:11:12;8.20;89.50
55642;DHT22;41509;53.108;6.100;2023-03-14T13:13:45;8.10;88.80
55642;DHT22;41509;53.108;6.100;2023-03-14T13:16:18;8.00;88.30
55642;DHT22;41509;53.108;6.100;2023-03-14T13:21:35;8.00;85.60
55642;DHT22;41509;53.108;6.100;2023-03-14T13:24:06;8.00;87.90
55642;DHT22;41509;53.108;6.100;2023-03-14T13:26:42;8.20;86.70
55642;DHT22;41509;53.108;6.100;2023-03-14T13:31:46;8.40;81.10
55642;DHT22;41509;53.108;6.100;2023-03-14T13:34:12;8.50;82.50
55642;DHT22;41509;53.108;6.100;2023-03-14T13:36:38;8.70;84.50
55642;DHT22;41509;53.108;6.100;2023-03-14T13:39:10;8.90;83.70
55642;DHT22;41509;53.108;6.100;2023-03-14T13:41:38;9.00;83.40
55642;DHT22;41509;53.108;6.100;2023-03-14T13:44:05;9.20;82.40
55642;DHT22;41509;53.108;6.100;2023-03-14T13:46:34;9.20;76.00
55642;DHT22;41509;53.108;6.100;2023-03-14T13:49:05;9.20;76.70
55642;DHT22;41509;53.108;6.100;2023-03-14T13:51:32;9.00;77.90
55642;DHT22;41509;53.108;6.100;2023-03-14T13:54:01;8.90;80.00
55642;DHT22;41509;53.108;6.100;2023-03-14T13:56:31;8.80;80.70
55642;DHT22;41509;53.108;6.100;2023-03-14T13:58:57;8.70;81.70
55642;DHT22;41509;53.108;6.100;2023-03-14T14:01:27;8.50;81.40
55642;DHT22;41509;53.108;6.100;2023-03-14T14:03:55;8.50;82.60
55642;DHT22;41509;53.108;6.100;2023-03-14T14:06:38;8.40;83.80
55642;DHT22;41509;53.108;6.100;2023-03-14T14:09:23;8.30;81.40
55642;DHT22;41509;53.108;6.100;2023-03-14T14:17:09;8.50;82.40
55642;DHT22;41509;53.108;6.100;2023-03-14T14:19:36;8.40;84.90
55642;DHT22;41509;53.108;6.100;2023-03-14T14:22:03;8.40;85.10
55642;DHT22;41509;53.108;6.100;2023-03-14T14:24:31;8.30;84.30
55642;DHT22;41509;53.108;6.100;2023-03-14T14:29:59;8.40;80.50
55642;DHT22;41509;53.108;6.100;2023-03-14T14:32:27;8.60;79.00
55642;DHT22;41509;53.108;6.100;2023-03-14T14:34:59;8.70;81.30
55642;DHT22;41509;53.108;6.100;2023-03-14T14:37:26;8.80;78.70
55642;DHT22;41509;53.108;6.100;2023-03-14T14:40:13;9.00;79.60
55642;DHT22;41509;53.108;6.100;2023-03-14T14:42:41;9.00;79.10
55642;DHT22;41509;53.108;6.100;2023-03-14T14:45:18;9.00;76.90
55642;DHT22;41509;53.108;6.100;2023-03-14T14:47:51;8.90;76.20
55642;DHT22;41509;53.108;6.100;2023-03-14T14:53:23;8.80;75.90
55642;DHT22;41509;53.108;6.100;2023-03-14T14:55:53;8.70;78.20
55642;DHT22;41509;53.108;6.100;2023-03-14T15:01:02;8.50;79.60
55642;DHT22;41509;53.108;6.100;2023-03-14T15:03:31;8.40;79.60
55642;DHT22;41509;53.108;6.100;2023-03-14T15:05:57;8.20;81.20
55642;DHT22;41509;53.108;6.100;2023-03-14T15:08:24;8.10;83.10
55642;DHT22;41509;53.108;6.100;2023-03-14T15:10:51;7.90;82.30
55642;DHT22;41509;53.108;6.100;2023-03-14T15:13:16;7.80;83.80
55642;DHT22;41509;53.108;6.100;2023-03-14T15:15:42;7.70;84.10
55642;DHT22;41509;53.108;6.100;2023-03-14T15:18:14;7.60;85.50
55642;DHT22;41509;53.108;6.100;2023-03-14T15:20:42;7.60;86.80
55642;DHT22;41509;53.108;6.100;2023-03-14T15:23:10;7.70;87.60
55642;DHT22;41509;53.108;6.100;2023-03-14T15:25:36;7.70;88.80
55642;DHT22;41509;53.108;6.100;2023-03-14T15:28:03;7.80;89.30
55642;DHT22;41509;53.108;6.100;2023-03-14T15:30:28;7.80;89.50
55642;DHT22;41509;53.108;6.100;2023-03-14T15:32:54;7.80;88.40
55642;DHT22;41509;53.108;6.100;2023-03-14T15:35:20;7.80;84.10
55642;DHT22;41509;53.108;6.100;2023-03-14T15:37:45;7.70;83.10
55642;DHT22;41509;53.108;6.100;2023-03-14T15:40:12;7.60;82.00
55642;DHT22;41509;53.108;6.100;2023-03-14T15:42:40;7.50;83.90
55642;DHT22;41509;53.108;6.100;2023-03-14T15:45:06;7.30;84.40
55642;DHT22;41509;53.108;6.100;2023-03-14T15:47:32;7.30;90.50
55642;DHT22;41509;53.108;6.100;2023-03-14T15:49:58;6.90;96.80
55642;DHT22;41509;53.108;6.100;2023-03-14T15:52:24;6.60;97.20
55642;DHT22;41509;53.108;6.100;2023-03-14T15:54:49;6.30;99.90
55642;DHT22;41509;53.108;6.100;2023-03-14T15:57:15;6.20;99.90
55642;DHT22;41509;53.108;6.100;2023-03-14T15:59:40;6.10;99.90
55642;DHT22;41509;53.108;6.100;2023-03-14T16:02:06;6.00;99.90
55642;DHT22;41509;53.108;6.100;2023-03-14T16:04:33;6.10;99.90
55642;DHT22;41509;53.108;6.100;2023-03-14T16:06:59;6.10;99.90
55642;DHT22;41509;53.108;6.100;2023-03-14T16:09:24;6.00;99.90
55642;DHT22;41509;53.108;6.100;2023-03-14T16:11:51;6.00;99.90
55642;DHT22;41509;53.108;6.100;2023-03-14T16:14:17;6.00;99.90
55642;DHT22;41509;53.108;6.100;2023-03-14T16:16:42;6.00;99.90
55642;DHT22;41509;53.108;6.100;2023-03-14T16:19:08;6.00;99.90
55642;DHT22;41509;53.108;6.100;2023-03-14T16:21:33;6.10;99.90
55642;DHT22;41509;53.108;6.100;2023-03-14T16:23:59;6.10;99.90
55642;DHT22;41509;53.108;6.100;2023-03-14T16:26:27;6.20;99.90
55642;DHT22;41509;53.108;6.100;2023-03-14T16:28:52;6.20;99.90
55642;DHT22;41509;53.108;6.100;2023-03-14T16:31:19;6.20;99.90
55642;DHT22;41509;53.108;6.100;2023-03-14T16:33:46;6.20;99.90
55642;DHT22;41509;53.108;6.100;2023-03-14T16:36:13;6.20;99.90
55642;DHT22;41509;53.108;6.100;2023-03-14T16:38:41;6.10;99.90
55642;DHT22;41509;53.108;6.100;2023-03-14T16:43:35;6.00;99.90
55642;DHT22;41509;53.108;6.100;2023-03-14T16:46:05;6.00;99.90
55642;DHT22;41509;53.108;6.100;2023-03-14T16:48:32;6.00;99.90
55642;DHT22;41509;53.108;6.100;2023-03-14T16:50:57;6.00;99.90
55642;DHT22;41509;53.108;6.100;2023-03-14T16:53:24;6.00;99.90
55642;DHT22;41509;53.108;6.100;2023-03-14T16:55:51;6.00;99.90
55642;DHT22;41509;53.108;6.100;2023-03-14T16:58:17;6.00;99.90
55642;DHT22;41509;53.108;6.100;2023-03-14T17:00:45;6.00;99.90
55642;DHT22;41509;53.108;6.100;2023-03-14T17:03:11;5.90;99.90
55642;DHT22;41509;53.108;6.100;2023-03-14T17:05:37;5.90;99.90
55642;DHT22;41509;53.108;6.100;2023-03-14T17:08:03;5.90;99.90
55642;DHT22;41509;53.108;6.100;2023-03-14T17:10:29;5.80;99.90
55642;DHT22;41509;53.108;6.100;2023-03-14T17:12:55;5.80;99.90
55642;DHT22;41509;53.108;6.100;2023-03-14T17:15:20;5.80;99.90
55642;DHT22;41509;53.108;6.100;2023-03-14T17:17:46;5.80;99.90